»·PEaware :: N102CF 2S9-74S

N102CF :: 2S9-74S

FLIGHT INFORMATION

Flight Status: Arrived
Operator: Privately registered:
United States
More flights under this callsign
Pilot: Cole F. (14495)
Aircraft: Unknown
(P28U)
More flights by this aircraft type
Origin: 2S9 Willapa Harbor
United States
Destination: 74S Anacortes
United States
More flights between these airports :: More routes between these airports
Route: ULESS V27 CARRO V165 CVV
File this flight plan on PilotEdge
Remarks:
Altitude:
(Current/Filed)
7,000ft
Speed:
(Current/Filed)
165kts
Departed: 23-Aug-19 08:50 AM
Arrived: 23-Aug-19 09:52 AM
Distance/Time
Traveled:
118nm/1:02
Distance/Time
To Go:
Arrived

Flight Plot

Page will automatically refresh every two minutes.


Map Options




Map Legend


Flown Route
Filed Route
Departure Airport
Arrival Airport
Navaid (VOR, NDB)
Fix

Horizontal Profiles

Position Reports

Time Latitude Longitude Heading Altitude Ground
Speed
23-Aug-19 08:44 46.698169 -123.822097 225 13ft 0kts
23-Aug-19 08:45 46.698169 -123.822097 225 13ft 0kts
23-Aug-19 08:46 46.697868 -123.822354 315 13ft 7kts
23-Aug-19 08:47 46.699933 -123.825328 315 13ft 12kts
23-Aug-19 08:48 46.699864 -123.826721 133 13ft 39kts
23-Aug-19 08:49 46.686213 -123.805507 115 925ft 80kts
23-Aug-19 08:50 46.679683 -123.774155 54 2121ft 85kts
23-Aug-19 08:51 46.698395 -123.753507 32 3349ft 88kts
23-Aug-19 08:52 46.716549 -123.734613 32 4357ft 95kts
23-Aug-19 08:53 46.739607 -123.714931 19 5461ft 99kts
23-Aug-19 08:54 46.765218 -123.699744 19 6603ft 100kts
23-Aug-19 08:55 46.794462 -123.681563 21 6982ft 134kts
23-Aug-19 08:56 46.828848 -123.659904 20 6978ft 134kts
23-Aug-19 08:57 46.863065 -123.638545 21 6978ft 134kts
23-Aug-19 08:58 46.897894 -123.616817 20 7039ft 139kts
23-Aug-19 08:59 46.933925 -123.594239 21 7107ft 142kts
23-Aug-19 09:00 46.970611 -123.571190 20 7130ft 144kts
23-Aug-19 09:01 47.007443 -123.548055 20 7138ft 144kts
23-Aug-19 09:02 47.044318 -123.524862 20 7141ft 144kts
23-Aug-19 09:03 47.081228 -123.501617 20 7140ft 144kts
23-Aug-19 09:04 47.118233 -123.478278 20 7140ft 145kts
23-Aug-19 09:05 47.142051 -123.432503 66 7116ft 149kts
23-Aug-19 09:06 47.156856 -123.375609 66 7128ft 149kts
23-Aug-19 09:07 47.170222 -123.325121 67 7131ft 149kts
23-Aug-19 09:08 47.185444 -123.267873 67 7016ft 152kts
23-Aug-19 09:09 47.200262 -123.212020 66 7082ft 145kts
23-Aug-19 09:10 47.215060 -123.156221 66 7076ft 143kts
23-Aug-19 09:11 47.229710 -123.100859 66 7072ft 145kts
23-Aug-19 09:12 47.244273 -123.045629 66 7081ft 145kts
23-Aug-19 09:13 47.258862 -122.990159 66 7089ft 145kts
23-Aug-19 09:14 47.273404 -122.934735 66 7095ft 145kts
23-Aug-19 09:15 47.287945 -122.879090 66 7102ft 145kts
23-Aug-19 09:16 47.319529 -122.854976 4 7084ft 139kts
23-Aug-19 09:17 47.358141 -122.848661 4 7095ft 139kts
23-Aug-19 09:19 47.396818 -122.843092 3 7099ft 140kts
23-Aug-19 09:20 47.435579 -122.837719 3 7100ft 140kts
23-Aug-19 09:21 47.474443 -122.832360 3 7102ft 140kts
23-Aug-19 09:22 47.513209 -122.826964 3 7102ft 140kts
23-Aug-19 09:23 47.552074 -122.821562 3 7102ft 140kts
23-Aug-19 09:24 47.590833 -122.816170 3 7089ft 140kts
23-Aug-19 09:25 47.629888 -122.810724 3 7084ft 140kts
23-Aug-19 09:26 47.669277 -122.805273 3 7158ft 144kts
23-Aug-19 09:27 47.709614 -122.799590 3 7212ft 146kts
23-Aug-19 09:28 47.750203 -122.793858 3 7231ft 147kts
23-Aug-19 09:29 47.790933 -122.788142 3 7236ft 147kts
23-Aug-19 09:30 47.831745 -122.782402 3 7240ft 147kts
23-Aug-19 09:31 47.872439 -122.776685 3 7258ft 146kts
23-Aug-19 09:32 47.913468 -122.770864 3 7044ft 150kts
23-Aug-19 09:33 47.952354 -122.765384 3 6983ft 136kts
23-Aug-19 09:33 47.983350 -122.761129 3 6980ft 133kts
23-Aug-19 09:35 48.026446 -122.755244 3 6985ft 134kts
23-Aug-19 09:36 48.063482 -122.749929 3 6984ft 133kts
23-Aug-19 09:36 48.094480 -122.745513 3 6499ft 135kts
23-Aug-19 09:38 48.137652 -122.739369 3 5788ft 133kts
23-Aug-19 09:38 48.168467 -122.734977 3 5278ft 132kts
23-Aug-19 09:39 48.204967 -122.729674 4 4129ft 131kts
23-Aug-19 09:40 48.237294 -122.725187 4 3256ft 98kts
23-Aug-19 09:42 48.270813 -122.718461 10 3088ft 122kts
23-Aug-19 09:42 48.299122 -122.711167 11 3209ft 122kts
23-Aug-19 09:43 48.333780 -122.702606 8 3131ft 124kts
23-Aug-19 09:44 48.367088 -122.706513 6 2191ft 108kts
23-Aug-19 09:45 48.393794 -122.702505 4 1315ft 100kts
23-Aug-19 09:46 48.422296 -122.694924 13 1415ft 110kts
23-Aug-19 09:47 48.453359 -122.693467 355 1407ft 112kts
23-Aug-19 09:48 48.483404 -122.687712 22 1240ft 106kts
23-Aug-19 09:49 48.508308 -122.675541 10 855ft 89kts
23-Aug-19 09:50 48.503992 -122.659452 204 299ft 67kts
23-Aug-19 09:51 48.498174 -122.661397 179 243ft 2kts

Navigation Log

Ident Type
Flight plan parsing failed, navigation log unavailable